Time,TemperatureF,DewpointF,PressureIn,WindDirection,WindDirectionDegrees,WindSpeedMPH,WindSpeedGustMPH,Humidity,HourlyPrecipIn,Conditions,Clouds,dailyrainin,SoftwareType,DateUTC
2013-03-16 00:17:00,50.2,40.0,29.93,WNW,290,1.0,2.0,67,0.00,,,0.00,weatherlink.com 1.10,2013-03-16 02:17:00,
2013-03-16 00:32:00,49.5,39.0,29.93,WNW,290,0.0,3.0,68,0.00,,,0.00,weatherlink.com 1.10,2013-03-16 02:32:00,
2013-03-16 00:47:00,49.0,39.0,29.93,WNW,290,0.0,1.0,69,0.00,,,0.00,weatherlink.com 1.10,2013-03-16 02:47:00,
2013-03-16 01:03:00,47.3,39.0,29.93,WNW,290,0.0,5.0,73,0.00,,,0.00,weatherlink.com 1.10,2013-03-16 03:03:00,
2013-03-16 01:19:00,47.2,39.0,29.93,WNW,290,0.0,1.0,73,0.00,,,0.00,weatherlink.com 1.10,2013-03-16 03:19:00,
2013-03-16 01:35:00,46.8,39.0,29.93,WNW,290,0.0,3.0,75,0.00,,,0.00,weatherlink.com 1.10,2013-03-16 03:35:00,
2013-03-16 01:50:00,46.5,39.0,29.92,WNW,290,1.0,3.0,76,0.00,,,0.00,weatherlink.com 1.10,2013-03-16 03:50:00,
2013-03-16 02:05:00,46.2,40.0,29.92,West,265,5.0,8.0,78,0.00,,,0.00,weatherlink.com 1.10,2013-03-16 04:05:00,
2013-03-16 02:21:00,46.4,40.0,29.91,WNW,288,1.0,5.0,77,0.00,,,0.00,weatherlink.com 1.10,2013-03-16 04:21:00,
2013-03-16 02:37:00,45.0,39.0,29.90,WNW,287,1.0,4.0,80,0.00,,,0.00,weatherlink.com 1.10,2013-03-16 04:37:00,
2013-03-16 02:52:00,44.7,40.0,29.89,WNW,287,0.0,3.0,83,0.00,,,0.00,weatherlink.com 1.10,2013-03-16 04:52:00,
2013-03-16 03:07:00,45.7,41.0,29.89,NW,308,3.0,4.0,82,0.00,,,0.00,weatherlink.com 1.10,2013-03-16 05:07:00,
2013-03-16 03:23:00,48.8,41.0,29.90,NNW,342,3.0,6.0,75,0.00,,,0.00,weatherlink.com 1.10,2013-03-16 05:23:00,
2013-03-16 03:38:00,47.5,42.0,29.88,NNW,343,0.0,3.0,80,0.00,,,0.00,weatherlink.com 1.10,2013-03-16 05:38:00,
2013-03-16 03:54:00,47.0,41.0,29.88,NNW,342,0.0,3.0,81,0.00,,,0.00,weatherlink.com 1.10,2013-03-16 05:54:00,
2013-03-16 04:09:00,47.3,41.0,29.88,NNW,341,0.0,4.0,80,0.00,,,0.00,weatherlink.com 1.10,2013-03-16 06:09:00,
2013-03-16 04:25:00,48.2,42.0,29.88,NNW,341,0.0,3.0,78,0.00,,,0.00,weatherlink.com 1.10,2013-03-16 06:25:00,
2013-03-16 04:40:00,47.1,42.0,29.88,NNW,341,2.0,3.0,82,0.00,,,0.00,weatherlink.com 1.10,2013-03-16 06:40:00,
2013-03-16 04:56:00,46.6,42.0,29.87,NNW,341,0.0,3.0,83,0.00,,,0.00,weatherlink.com 1.10,2013-03-16 06:56:00,
2013-03-16 05:27:00,45.5,41.0,29.86,NNW,341,2.0,3.0,85,0.00,,,0.00,weatherlink.com 1.10,2013-03-16 07:27:00,
2013-03-16 05:42:00,44.9,41.0,29.86,NNW,341,0.0,3.0,85,0.00,,,0.00,weatherlink.com 1.10,2013-03-16 07:42:00,
2013-03-16 05:57:00,43.9,40.0,29.86,NNW,340,2.0,2.0,86,0.00,,,0.00,weatherlink.com 1.10,2013-03-16 07:57:00,
2013-03-16 06:12:00,43.2,40.0,29.86,NNW,340,2.0,4.0,87,0.00,,,0.00,weatherlink.com 1.10,2013-03-16 08:12:00,
2013-03-16 06:28:00,42.8,39.0,29.85,NNW,340,0.0,2.0,88,0.00,,,0.00,weatherlink.com 1.10,2013-03-16 08:28:00,
2013-03-16 06:43:00,42.9,40.0,29.84,NNW,340,0.0,3.0,89,0.00,,,0.00,weatherlink.com 1.10,2013-03-16 08:43:00,
2013-03-16 06:59:00,42.8,40.0,29.84,NNW,340,3.0,3.0,89,0.00,,,0.00,weatherlink.com 1.10,2013-03-16 08:59:00,
2013-03-16 07:14:00,42.9,40.0,29.84,NNW,340,0.0,2.0,90,0.00,,,0.00,weatherlink.com 1.10,2013-03-16 09:14:00,
2013-03-16 07:30:00,42.9,40.0,29.84,NNW,340,2.0,2.0,90,0.00,,,0.00,weatherlink.com 1.10,2013-03-16 09:30:00,
2013-03-16 07:45:00,44.6,42.0,29.84,NNW,341,0.0,4.0,89,0.00,,,0.00,weatherlink.com 1.10,2013-03-16 09:45:00,
2013-03-16 12:46:00,67.4,50.0,29.83,SW,225,4.0,7.0,53,0.00,,,0.00,weatherlink.com 1.10,2013-03-16 14:46:00,
2013-03-16 13:02:00,68.8,48.0,29.82,West,275,11.0,11.0,48,0.00,,,0.00,weatherlink.com 1.10,2013-03-16 15:02:00,
2013-03-16 13:20:00,69.5,48.0,29.82,WSW,258,6.0,15.0,47,0.00,,,0.00,weatherlink.com 1.10,2013-03-16 15:20:00,
2013-03-16 13:52:00,70.7,49.0,29.80,SW,236,13.0,16.0,46,0.00,,,0.00,weatherlink.com 1.10,2013-03-16 15:52:00,
2013-03-16 14:09:00,71.3,49.0,29.80,West,277,8.0,16.0,45,0.00,,,0.00,weatherlink.com 1.10,2013-03-16 16:09:00,
2013-03-16 14:25:00,72.0,50.0,29.79,West,279,12.0,18.0,46,0.00,,,0.00,weatherlink.com 1.10,2013-03-16 16:25:00,
2013-03-16 14:42:00,72.7,50.0,29.79,WSW,253,5.0,13.0,45,0.00,,,0.00,weatherlink.com 1.10,2013-03-16 16:42:00,
2013-03-16 14:58:00,73.3,50.0,29.78,WNW,288,13.0,18.0,44,0.00,,,0.00,weatherlink.com 1.10,2013-03-16 16:58:00,
2013-03-16 15:14:00,74.1,51.0,29.77,West,281,10.0,16.0,45,0.00,,,0.00,weatherlink.com 1.10,2013-03-16 17:14:00,
2013-03-16 15:31:00,74.8,50.0,29.77,WSW,252,9.0,15.0,42,0.00,,,0.00,weatherlink.com 1.10,2013-03-16 17:31:00,
2013-03-16 16:04:00,75.3,51.0,29.75,WSW,242,9.0,17.0,42,0.00,,,0.00,weatherlink.com 1.10,2013-03-16 18:04:00,
2013-03-16 16:38:00,77.1,52.0,29.73,WSW,250,7.0,20.0,42,0.00,,,0.00,weatherlink.com 1.10,2013-03-16 18:38:00,
2013-03-16 16:54:00,78.1,51.0,29.72,WNW,294,13.0,21.0,39,0.00,,,0.00,weatherlink.com 1.10,2013-03-16 18:54:00,
2013-03-16 17:10:00,77.2,50.0,29.72,WSW,254,11.0,17.0,38,0.00,,,0.00,weatherlink.com 1.10,2013-03-16 19:10:00,
2013-03-16 17:27:00,77.3,48.0,29.71,West,265,14.0,21.0,36,0.00,,,0.00,weatherlink.com 1.10,2013-03-16 19:27:00,
2013-03-16 17:43:00,78.0,49.0,0.00,WSW,240,8.0,17.0,36,0.00,,,0.00,weatherlink.com 1.10,2013-03-16 19:43:00,
2013-03-16 18:00:00,78.7,49.0,29.71,WSW,244,12.0,22.0,36,0.00,,,0.00,weatherlink.com 1.10,2013-03-16 20:00:00,
2013-03-16 18:16:00,77.9,49.0,29.70,SW,232,12.0,16.0,36,0.00,,,0.00,weatherlink.com 1.10,2013-03-16 20:16:00,
2013-03-16 18:33:00,78.8,49.0,24.02,SW,216,14.0,18.0,35,0.00,,,0.00,weatherlink.com 1.10,2013-03-16 20:33:00,
2013-03-16 18:49:00,78.4,48.0,29.70,West,270,8.0,17.0,35,0.00,,,0.00,weatherlink.com 1.10,2013-03-16 20:49:00,
2013-03-16 19:06:00,79.2,48.0,29.69,West,272,11.0,22.0,34,0.00,,,0.00,weatherlink.com 1.10,2013-03-16 21:06:00,
2013-03-16 19:22:00,79.3,48.0,29.70,West,281,10.0,19.0,34,0.00,,,0.00,weatherlink.com 1.10,2013-03-16 21:22:00,
2013-03-16 19:39:00,79.6,48.0,0.00,WSW,252,11.0,17.0,33,0.00,,,0.00,weatherlink.com 1.10,2013-03-16 21:39:00,
2013-03-16 19:55:00,79.3,47.0,29.46,WNW,282,12.0,18.0,32,0.00,,,0.00,weatherlink.com 1.10,2013-03-16 21:55:00,
2013-03-16 20:11:00,78.7,46.0,29.69,WNW,286,11.0,20.0,32,0.00,,,0.00,weatherlink.com 1.10,2013-03-16 22:11:00,
2013-03-16 20:28:00,77.7,48.0,29.70,WNW,295,17.0,22.0,35,0.00,,,0.00,weatherlink.com 1.10,2013-03-16 22:28:00,
2013-03-16 20:44:00,76.5,47.0,29.70,WNW,291,13.0,23.0,35,0.00,,,0.00,weatherlink.com 1.10,2013-03-16 22:44:00,
2013-03-16 21:01:00,76.2,47.0,29.71,WNW,295,10.0,32.0,36,0.00,,,0.00,weatherlink.com 1.10,2013-03-16 23:01:00,
2013-03-16 21:17:00,75.6,49.0,0.00,NW,322,6.0,23.0,39,0.00,,,0.00,weatherlink.com 1.10,2013-03-16 23:17:00,
2013-03-16 21:34:00,74.9,48.0,0.00,West,277,11.0,25.0,39,0.00,,,0.00,weatherlink.com 1.10,2013-03-16 23:34:00,
2013-03-16 21:50:00,74.6,48.0,29.55,NW,311,14.0,28.0,39,0.00,,,0.00,weatherlink.com 1.10,2013-03-16 23:50:00,
2013-03-16 22:07:00,74.2,49.0,32.37,WNW,287,16.0,27.0,41,0.00,,,0.00,weatherlink.com 1.10,2013-03-17 00:07:00,
2013-03-16 22:23:00,73.3,49.0,29.77,WNW,288,10.0,23.0,42,0.00,,,0.00,weatherlink.com 1.10,2013-03-17 00:23:00,
2013-03-16 22:40:00,72.3,49.0,29.78,NW,311,2.0,16.0,43,0.00,,,0.00,weatherlink.com 1.10,2013-03-17 00:40:00,
2013-03-16 23:12:00,70.6,49.0,29.60,WNW,284,0.0,3.0,46,0.00,,,0.00,weatherlink.com 1.10,2013-03-17 01:12:00,
2013-03-16 23:29:00,70.0,49.0,29.60,SW,223,2.0,5.0,47,0.00,,,0.00,weatherlink.com 1.10,2013-03-17 01:29:00,
2013-03-16 23:45:00,69.2,50.0,29.83,West,265,0.0,7.0,50,0.00,,,0.00,weatherlink.com 1.10,2013-03-17 01:45:00,